Time;durP1;ratioP1;P1;durP2;ratioP2;P2;SDS_P1;SDS_P2;PMS_P1;PMS_P2;Temp;Humidity;BMP_temperature;BMP_pressure;BME280_temperature;BME280_humidity;BME280_pressure;Samples;Min_cycle;Max_cycle;Signal;HPM_P1;HPM_P2
2021/12/18 00:00:25;;;;;;;2.42;1.08;;;7.00;99.90;;;;;;5007062;28;20038;-77
2021/12/18 00:02:50;;;;;;;13.15;1.48;;;6.90;99.90;;;;;;5021879;28;20402;-76
2021/12/18 00:05:16;;;;;;;24.00;1.80;;;7.00;99.90;;;;;;5031565;28;20137;-76
2021/12/18 00:07:42;;;;;;;21.20;1.48;;;6.50;99.90;;;;;;5038143;28;20045;-75
2021/12/18 00:10:08;;;;;;;10.27;1.00;;;7.50;99.90;;;;;;5028778;28;20076;-76
2021/12/18 00:12:33;;;;;;;22.30;1.48;;;6.80;99.90;;;;;;5006205;28;20049;-76
2021/12/18 00:14:59;;;;;;;20.80;1.58;;;6.80;99.90;;;;;;4988728;28;20041;-77
2021/12/18 00:17:25;;;;;;;4.32;1.15;;;6.70;99.90;;;;;;4992480;28;20038;-77
2021/12/18 00:19:51;;;;;;;12.98;1.70;;;6.40;99.90;;;;;;4995065;28;20073;-76
2021/12/18 00:22:16;;;;;;;3.28;1.30;;;6.70;99.90;;;;;;4992077;28;20048;-77
2021/12/18 00:24:42;;;;;;;1.80;1.45;;;6.40;99.90;;;;;;4993420;28;20106;-77
2021/12/18 00:27:08;;;;;;;5.20;1.10;;;6.70;99.90;;;;;;4993303;28;20045;-77
2021/12/18 00:29:34;;;;;;;9.82;1.90;;;6.50;99.90;;;;;;4992033;28;20042;-76
2021/12/18 00:32:00;;;;;;;1.95;1.15;;;6.70;99.90;;;;;;5009217;28;20069;-77
2021/12/18 00:34:25;;;;;;;5.05;0.93;;;6.70;99.90;;;;;;4991318;28;20037;-77
2021/12/18 00:36:51;;;;;;;5.28;1.38;;;6.70;99.90;;;;;;5008187;28;20119;-77
2021/12/18 00:39:17;;;;;;;0.90;0.70;;;6.50;99.90;;;;;;5008605;28;20038;-77
2021/12/18 00:44:35;;;;;;;2.88;1.05;;;6.70;99.90;;;;;;4993623;28;20045;-76
2021/12/18 00:47:01;;;;;;;3.63;0.85;;;7.90;99.90;;;;;;4992683;28;20490;-77
2021/12/18 00:49:27;;;;;;;5.40;1.60;;;6.70;99.90;;;;;;4992448;28;20048;-77
2021/12/18 00:51:52;;;;;;;6.10;1.85;;;6.70;99.90;;;;;;4991898;28;20492;-77
2021/12/18 00:54:18;;;;;;;6.43;1.40;;;6.40;99.90;;;;;;4992178;28;20133;-78
2021/12/18 00:56:43;;;;;;;4.78;1.70;;;6.70;99.90;;;;;;4992789;28;20054;-76
2021/12/18 00:59:09;;;;;;;5.47;1.98;;;6.70;99.90;;;;;;4992402;28;20068;-77
2021/12/18 01:01:35;;;;;;;5.95;1.98;;;7.60;99.90;;;;;;4993097;28;20042;-76
2021/12/18 01:04:02;;;;;;;7.00;1.52;;;6.70;99.90;;;;;;4992405;28;20038;-76
2021/12/18 01:06:28;;;;;;;3.10;1.65;;;6.70;99.90;;;;;;4992084;28;20058;-77
2021/12/18 01:08:56;;;;;;;2.05;1.17;;;6.70;99.90;;;;;;5009434;28;20490;-77
2021/12/18 01:16:56;;;;;;;4.28;1.60;;;7.40;99.90;;;;;;5008747;28;20077;-76
2021/12/18 01:24:52;;;;;;;5.93;1.45;;;6.70;99.90;;;;;;5008198;28;20057;-76
2021/12/18 01:27:18;;;;;;;2.85;1.20;;;8.00;99.90;;;;;;5007468;28;20054;-78
2021/12/18 01:29:44;;;;;;;7.55;5.63;;;6.70;99.90;;;;;;4992438;28;20068;-77
2021/12/18 01:32:09;;;;;;;3.78;2.47;;;6.70;99.90;;;;;;4992103;28;20045;-76
2021/12/18 01:34:36;;;;;;;6.18;1.80;;;6.70;99.90;;;;;;5004769;28;20125;-77
2021/12/18 01:37:02;;;;;;;7.35;2.35;;;6.70;99.90;;;;;;5009979;28;20049;-77
2021/12/18 01:39:28;;;;;;;7.13;1.80;;;6.70;99.90;;;;;;4988305;28;20038;-77
2021/12/18 01:44:36;;;;;;;4.07;1.48;;;6.60;99.90;;;;;;5007364;28;20038;-77
2021/12/18 01:52:33;;;;;;;5.45;1.15;;;6.60;99.90;;;;;;5017113;28;20445;-77
2021/12/18 01:55:00;;;;;;;3.80;1.35;;;6.60;99.90;;;;;;4995485;28;20048;-78
2021/12/18 01:57:26;;;;;;;4.13;1.60;;;6.60;99.90;;;;;;4989510;28;20046;-77
2021/12/18 01:59:52;;;;;;;3.35;1.50;;;6.60;99.90;;;;;;5016406;28;20053;-77
2021/12/18 02:02:20;;;;;;;4.40;1.25;;;6.60;99.90;;;;;;5011595;28;20057;-77
2021/12/18 02:04:46;;;;;;;2.83;1.38;;;6.60;99.90;;;;;;5015809;28;20061;-76
2021/12/18 02:07:12;;;;;;;3.58;1.20;;;6.60;99.90;;;;;;5005485;28;20042;-76
2021/12/18 02:10:03;;;;;;;4.50;1.20;;;6.60;99.90;;;;;;5010474;28;20046;-76
2021/12/18 02:12:32;;;;;;;7.38;1.35;;;8.00;99.90;;;;;;5026994;28;20057;-77
2021/12/18 02:23:04;;;;;;;1.02;0.73;;;6.50;99.90;;;;;;5010430;28;20045;-77
2021/12/18 02:25:33;;;;;;;1.73;0.93;;;6.50;99.90;;;;;;5010889;28;20065;-76
2021/12/18 02:27:58;;;;;;;3.22;1.20;;;6.40;99.90;;;;;;4995196;28;20077;-76
2021/12/18 02:30:24;;;;;;;10.77;1.13;;;6.50;99.90;;;;;;4997801;28;20497;-77
2021/12/18 02:32:51;;;;;;;1.38;0.98;;;6.50;99.90;;;;;;5011724;28;20477;-78
2021/12/18 02:35:32;;;;;;;2.08;1.05;;;6.40;99.90;;;;;;4993451;28;20064;-76
2021/12/18 02:38:11;;;;;;;1.52;0.95;;;6.50;99.90;;;;;;4995456;28;20128;-77
2021/12/18 02:40:55;;;;;;;1.30;0.98;;;6.50;99.90;;;;;;5012786;28;20127;-77
2021/12/18 02:43:27;;;;;;;1.98;1.13;;;6.40;99.90;;;;;;5002770;28;20042;-77
2021/12/18 02:45:55;;;;;;;2.20;1.20;;;6.50;99.90;;;;;;5008691;28;20525;-76
2021/12/18 02:48:22;;;;;;;2.10;1.17;;;6.60;99.90;;;;;;5016934;28;20041;-76
2021/12/18 02:50:48;;;;;;;1.40;1.30;;;6.60;99.90;;;;;;5025725;28;20081;-77
2021/12/18 02:53:14;;;;;;;9.77;2.88;;;5.40;99.90;;;;;;5013500;28;20088;-77
2021/12/18 02:55:39;;;;;;;1.80;1.48;;;7.40;99.90;;;;;;5003155;28;20081;-76
2021/12/18 02:58:06;;;;;;;3.35;1.45;;;6.60;99.90;;;;;;5006560;28;20073;-76
2021/12/18 03:00:31;;;;;;;3.38;1.80;;;6.60;99.90;;;;;;5007072;28;20042;-77
2021/12/18 03:02:58;;;;;;;2.80;1.95;;;6.70;99.90;;;;;;5040664;28;20556;-77
2021/12/18 03:05:32;;;;;;;8.68;2.10;;;6.70;99.90;;;;;;5016388;28;20065;-76
2021/12/18 03:08:07;;;;;;;3.47;1.67;;;6.70;99.90;;;;;;4995481;28;20104;-77
2021/12/18 03:26:57;;;;;;;1.63;0.50;;;6.60;99.90;;;;;;5014272;28;20050;-77
2021/12/18 03:29:23;;;;;;;3.10;0.70;;;8.10;99.90;;;;;;4993271;28;20045;-76
2021/12/18 03:31:49;;;;;;;1.40;0.50;;;6.70;99.90;;;;;;5042857;28;20394;-76
2021/12/18 03:34:14;;;;;;;1.10;0.43;;;6.70;99.90;;;;;;5006153;28;20164;-78
2021/12/18 03:36:40;;;;;;;1.10;0.47;;;6.70;99.90;;;;;;4994466;28;20128;-77
2021/12/18 03:39:06;;;;;;;1.05;0.55;;;6.60;99.90;;;;;;5005978;28;20038;-77
2021/12/18 03:41:32;;;;;;;2.13;0.80;;;6.60;99.90;;;;;;4994200;28;20410;-77
2021/12/18 03:43:58;;;;;;;1.35;0.43;;;6.50;99.90;;;;;;4995095;28;20054;-76
2021/12/18 03:46:23;;;;;;;1.25;0.47;;;7.40;99.90;;;;;;4997781;28;20084;-77
2021/12/18 03:48:49;;;;;;;2.25;0.30;;;6.60;99.90;;;;;;5009651;28;20127;-76
2021/12/18 03:51:14;;;;;;;1.63;0.30;;;6.60;99.90;;;;;;4986812;28;20046;-77
2021/12/18 03:53:40;;;;;;;2.88;0.55;;;6.50;99.90;;;;;;5024682;28;20528;-76
2021/12/18 03:56:06;;;;;;;0.85;0.40;;;6.50;99.90;;;;;;4989289;28;20041;-76
2021/12/18 03:58:31;;;;;;;1.00;0.40;;;6.50;99.90;;;;;;4990251;28;20043;-77
2021/12/18 04:00:57;;;;;;;1.00;0.40;;;6.40;99.90;;;;;;5008476;28;20041;-77
2021/12/18 04:03:23;;;;;;;1.45;0.70;;;6.40;99.90;;;;;;5025348;28;20402;-77
2021/12/18 04:05:49;;;;;;;2.90;0.68;;;6.40;99.90;;;;;;4997427;28;20050;-77
2021/12/18 04:08:15;;;;;;;3.20;0.75;;;6.40;99.90;;;;;;5034778;28;20034;-76
2021/12/18 04:10:41;;;;;;;2.33;0.85;;;6.30;99.90;;;;;;5010884;28;20559;-77
2021/12/18 04:13:08;;;;;;;2.85;0.80;;;6.40;99.90;;;;;;5014189;28;20393;-77
2021/12/18 04:15:36;;;;;;;1.95;0.82;;;6.30;99.90;;;;;;5013261;28;20113;-76
2021/12/18 04:18:01;;;;;;;2.40;0.98;;;6.30;99.90;;;;;;5013074;28;20042;-77
2021/12/18 04:20:28;;;;;;;3.42;1.20;;;6.80;99.90;;;;;;4998338;28;20100;-76
2021/12/18 04:22:54;;;;;;;2.35;1.02;;;6.30;99.90;;;;;;5038030;28;20065;-77
2021/12/18 04:25:20;;;;;;;6.82;1.08;;;6.30;99.90;;;;;;5000818;28;20084;-77
2021/12/18 04:27:46;;;;;;;2.72;1.38;;;6.30;99.90;;;;;;4991655;28;20041;-77
2021/12/18 04:30:12;;;;;;;8.40;1.10;;;6.30;99.90;;;;;;5023990;28;20037;-77
2021/12/18 04:32:38;;;;;;;2.55;1.20;;;6.30;99.90;;;;;;4999980;28;20095;-77
2021/12/18 04:35:04;;;;;;;3.92;1.02;;;6.30;99.90;;;;;;5041133;28;20057;-77
2021/12/18 04:37:29;;;;;;;6.38;1.25;;;6.30;99.90;;;;;;5017468;28;20038;-78
2021/12/18 04:39:55;;;;;;;2.47;0.93;;;6.30;99.90;;;;;;5011506;28;20149;-77
2021/12/18 04:42:21;;;;;;;2.30;0.95;;;7.70;99.90;;;;;;4988221;28;20401;-77
2021/12/18 04:44:47;;;;;;;6.85;1.13;;;6.30;99.90;;;;;;4986142;28;20041;-77
2021/12/18 04:47:12;;;;;;;2.95;1.02;;;6.30;99.90;;;;;;5024633;28;20037;-77
2021/12/18 04:49:38;;;;;;;4.70;1.13;;;6.30;99.90;;;;;;5026659;28;20046;-76
2021/12/18 04:52:05;;;;;;;1.83;0.93;;;6.30;99.90;;;;;;5027557;28;20080;-77
2021/12/18 04:54:31;;;;;;;3.83;0.88;;;6.30;99.90;;;;;;4989074;28;20038;-76
2021/12/18 04:56:57;;;;;;;4.25;1.23;;;6.30;99.90;;;;;;5008462;28;20041;-77
2021/12/18 04:59:23;;;;;;;2.95;0.98;;;6.40;99.90;;;;;;5001079;28;20054;-77
2021/12/18 05:01:51;;;;;;;3.38;1.38;;;6.30;99.90;;;;;;5006268;28;20048;-78
2021/12/18 05:04:16;;;;;;;6.57;1.70;;;7.50;99.90;;;;;;5000915;28;20513;-77
2021/12/18 05:06:45;;;;;;;2.08;1.20;;;6.40;99.90;;;;;;5013443;28;20049;-78
2021/12/18 05:09:12;;;;;;;8.85;1.75;;;6.40;99.90;;;;;;5009172;28;20543;-77
2021/12/18 05:11:38;;;;;;;7.05;1.92;;;6.90;99.90;;;;;;5037977;28;20085;-77
2021/12/18 05:14:04;;;;;;;4.75;2.00;;;6.40;99.90;;;;;;4993874;28;20068;-77
2021/12/18 05:16:30;;;;;;;3.58;1.90;;;6.40;99.90;;;;;;5009040;28;20477;-77
2021/12/18 05:18:55;;;;;;;6.72;2.67;;;6.40;99.90;;;;;;5008684;28;20459;-76
2021/12/18 05:21:21;;;;;;;6.65;3.15;;;6.50;99.90;;;;;;5009130;28;20048;-76
2021/12/18 05:23:48;;;;;;;6.35;2.90;;;6.50;99.90;;;;;;4992317;28;20046;-77
2021/12/18 05:26:14;;;;;;;6.07;3.05;;;6.30;99.90;;;;;;4991747;28;20133;-77
2021/12/18 05:28:39;;;;;;;6.40;3.28;;;6.30;99.90;;;;;;5008378;28;20458;-77
2021/12/18 05:31:05;;;;;;;5.65;3.25;;;6.60;99.90;;;;;;4993279;28;20492;-76
2021/12/18 05:33:31;;;;;;;8.45;3.58;;;6.30;99.90;;;;;;5007992;28;20042;-77
2021/12/18 05:35:56;;;;;;;7.78;3.55;;;6.60;99.90;;;;;;5008869;28;20037;-76
2021/12/18 05:38:22;;;;;;;10.77;4.47;;;6.60;99.90;;;;;;5024832;28;20168;-77
2021/12/18 05:40:48;;;;;;;9.88;3.65;;;6.60;99.90;;;;;;4992842;28;20556;-76
2021/12/18 05:43:13;;;;;;;18.15;4.72;;;6.70;99.90;;;;;;4991667;28;20034;-76
2021/12/18 05:45:39;;;;;;;8.88;4.40;;;6.70;99.90;;;;;;5007870;28;20089;-77
2021/12/18 05:48:05;;;;;;;7.07;3.67;;;6.70;99.90;;;;;;5008653;28;20490;-77
2021/12/18 05:50:31;;;;;;;7.32;4.32;;;6.70;99.90;;;;;;5008523;28;20430;-76
2021/12/18 05:52:59;;;;;;;14.68;4.80;;;6.70;99.90;;;;;;4991475;28;20056;-77
2021/12/18 05:55:26;;;;;;;9.50;5.03;;;6.80;99.90;;;;;;4991222;28;20048;-77
2021/12/18 05:57:52;;;;;;;7.93;4.55;;;6.80;99.90;;;;;;5008312;28;20501;-77
2021/12/18 06:00:19;;;;;;;10.63;5.60;;;6.90;99.90;;;;;;5007220;28;20560;-77
2021/12/18 06:02:46;;;;;;;11.70;6.05;;;6.90;99.90;;;;;;5008570;28;20046;-77
2021/12/18 06:05:11;;;;;;;11.98;6.25;;;6.90;99.90;;;;;;4999958;28;20444;-77
2021/12/18 06:07:52;;;;;;;15.45;6.13;;;6.90;99.90;;;;;;5007858;28;20058;-77
2021/12/18 06:10:18;;;;;;;12.23;5.57;;;6.90;99.90;;;;;;5039506;28;20414;-77
2021/12/18 06:12:43;;;;;;;8.25;5.55;;;7.00;99.90;;;;;;5008135;28;20042;-76
2021/12/18 06:15:09;;;;;;;15.95;6.65;;;7.00;99.90;;;;;;5007311;28;20041;-76
2021/12/18 06:17:35;;;;;;;11.55;5.97;;;7.00;99.90;;;;;;4991920;28;20050;-76
2021/12/18 06:20:00;;;;;;;11.35;6.28;;;7.00;99.90;;;;;;5025413;28;20715;-76
2021/12/18 06:22:26;;;;;;;11.68;6.30;;;7.10;99.90;;;;;;5007441;28;20162;-77
2021/12/18 06:24:51;;;;;;;13.80;6.25;;;7.40;99.90;;;;;;5008653;28;20037;-77
2021/12/18 06:27:17;;;;;;;13.70;6.25;;;8.90;99.90;;;;;;4991276;28;20057;-77
2021/12/18 06:29:43;;;;;;;11.68;5.50;;;7.10;99.90;;;;;;4991831;28;20525;-76
2021/12/18 06:32:09;;;;;;;10.95;5.30;;;7.10;99.90;;;;;;5008074;28;20456;-76
2021/12/18 06:34:35;;;;;;;12.75;5.72;;;7.10;99.90;;;;;;4991878;28;20045;-76
2021/12/18 06:37:01;;;;;;;17.75;6.53;;;7.10;99.90;;;;;;4994457;28;20120;-76
2021/12/18 06:39:26;;;;;;;14.90;5.43;;;7.20;99.90;;;;;;5011887;28;20141;-77
2021/12/18 06:41:53;;;;;;;14.80;5.32;;;7.10;99.90;;;;;;5011259;28;20046;-77
2021/12/18 06:44:19;;;;;;;9.93;5.22;;;7.20;99.90;;;;;;5010770;28;20054;-77
2021/12/18 06:46:45;;;;;;;9.70;5.05;;;7.20;99.90;;;;;;5003657;28;20046;-77
2021/12/18 06:49:11;;;;;;;10.43;4.53;;;7.20;99.90;;;;;;4993367;28;20108;-78
2021/12/18 06:51:38;;;;;;;7.97;4.55;;;7.20;99.90;;;;;;4994357;28;20046;-77
2021/12/18 06:54:03;;;;;;;7.28;4.85;;;7.20;99.90;;;;;;4994128;28;20041;-77
2021/12/18 06:56:29;;;;;;;9.48;4.70;;;8.30;99.90;;;;;;4993831;28;20061;-77
2021/12/18 06:58:55;;;;;;;7.88;4.20;;;7.20;99.90;;;;;;5011783;28;20460;-77
2021/12/18 07:01:20;;;;;;;13.93;6.45;;;7.30;99.90;;;;;;5018128;28;20042;-76
2021/12/18 07:03:47;;;;;;;11.10;6.05;;;6.90;99.90;;;;;;5010480;28;20046;-77
2021/12/18 07:06:13;;;;;;;11.80;6.30;;;7.20;99.90;;;;;;4994006;28;20050;-78
2021/12/18 07:08:38;;;;;;;7.38;4.78;;;7.30;99.90;;;;;;4990357;28;20053;-77
2021/12/18 07:11:04;;;;;;;8.40;4.93;;;7.30;99.90;;;;;;4993909;28;20057;-77
2021/12/18 07:13:29;;;;;;;9.75;4.78;;;7.30;99.90;;;;;;5010590;28;20041;-77
2021/12/18 07:15:55;;;;;;;9.85;4.97;;;7.30;99.90;;;;;;5010910;28;20100;-77
2021/12/18 07:18:21;;;;;;;10.23;4.53;;;7.40;99.90;;;;;;4993673;28;20505;-77
2021/12/18 07:20:48;;;;;;;10.45;4.30;;;7.30;99.90;;;;;;4979046;28;20046;-77
2021/12/18 07:23:15;;;;;;;8.35;4.40;;;8.30;99.90;;;;;;5010224;28;20048;-77
2021/12/18 07:25:40;;;;;;;7.88;4.15;;;8.60;99.90;;;;;;5000365;28;20053;-77
2021/12/18 07:28:06;;;;;;;9.07;4.57;;;7.40;99.90;;;;;;5014442;28;20046;-77
2021/12/18 07:30:31;;;;;;;12.02;4.47;;;8.90;99.90;;;;;;5010429;28;20046;-78
2021/12/18 07:32:57;;;;;;;10.13;4.28;;;7.40;99.90;;;;;;5009811;28;20517;-77
2021/12/18 07:35:23;;;;;;;8.40;3.75;;;9.00;99.90;;;;;;5026742;28;20069;-77
2021/12/18 07:37:48;;;;;;;24.33;13.90;;;7.50;99.90;;;;;;5010817;28;20045;-76
2021/12/18 07:40:15;;;;;;;30.08;14.90;;;7.50;99.90;;;;;;4999932;28;20069;-76
2021/12/18 07:42:40;;;;;;;28.95;14.63;;;7.50;99.90;;;;;;5006503;28;20049;-76
2021/12/18 07:45:07;;;;;;;12.05;4.70;;;9.20;99.90;;;;;;4995085;28;20049;-77
2021/12/18 07:47:33;;;;;;;11.15;4.32;;;7.50;99.90;;;;;;4998413;28;20045;-77
2021/12/18 07:49:58;;;;;;;23.83;12.30;;;7.60;99.90;;;;;;5031273;28;20052;-77
2021/12/18 07:52:24;;;;;;;9.98;5.05;;;7.60;99.90;;;;;;4994744;28;20149;-77
2021/12/18 07:54:51;;;;;;;12.40;3.75;;;7.60;99.90;;;;;;4994283;28;20129;-78
2021/12/18 07:57:16;;;;;;;6.75;3.17;;;7.70;99.90;;;;;;4977496;28;20087;-77
2021/12/18 07:59:42;;;;;;;12.13;2.85;;;7.70;99.90;;;;;;5009974;28;20432;-77
2021/12/18 08:02:09;;;;;;;12.02;3.55;;;7.60;99.90;;;;;;4990790;28;20043;-77
2021/12/18 08:04:35;;;;;;;10.27;3.17;;;7.70;99.90;;;;;;5009420;28;20060;-77
2021/12/18 08:07:02;;;;;;;8.38;3.25;;;7.70;99.90;;;;;;5015986;28;20093;-77
2021/12/18 08:09:28;;;;;;;6.72;2.60;;;7.70;99.90;;;;;;5043449;28;20125;-77
2021/12/18 08:11:55;;;;;;;9.88;2.67;;;7.70;99.90;;;;;;5011859;28;20041;-77
2021/12/18 08:14:20;;;;;;;12.43;4.25;;;7.70;99.90;;;;;;5008956;28;20508;-76
2021/12/18 08:16:48;;;;;;;52.33;32.20;;;7.70;99.90;;;;;;5009944;28;20042;-77
2021/12/18 08:19:14;;;;;;;24.77;14.05;;;7.70;99.90;;;;;;5011018;28;20034;-76
2021/12/18 08:21:40;;;;;;;16.67;7.22;;;7.70;99.90;;;;;;5009648;28;20445;-77
2021/12/18 08:24:05;;;;;;;10.80;3.45;;;7.70;99.90;;;;;;5020661;28;20128;-77
2021/12/18 08:26:31;;;;;;;7.72;3.10;;;7.80;99.90;;;;;;5022907;28;20125;-77
2021/12/18 08:28:57;;;;;;;7.18;2.70;;;7.80;99.90;;;;;;5037853;28;20091;-77
2021/12/18 08:31:22;;;;;;;9.32;2.47;;;7.80;99.90;;;;;;5008798;28;20037;-77
2021/12/18 08:33:48;;;;;;;10.43;3.03;;;7.80;99.90;;;;;;4994313;28;20132;-75
2021/12/18 08:36:14;;;;;;;6.25;2.83;;;7.70;99.90;;;;;;5008598;28;20068;-76
2021/12/18 08:38:40;;;;;;;9.15;3.22;;;7.80;99.90;;;;;;4992746;28;20048;-77
2021/12/18 08:41:06;;;;;;;50.63;38.92;;;7.90;99.90;;;;;;5013673;28;20091;-75
2021/12/18 08:43:32;;;;;;;28.25;17.05;;;7.90;99.90;;;;;;5008638;28;20440;-77
2021/12/18 08:45:57;;;;;;;11.52;4.30;;;7.80;99.90;;;;;;5008555;28;20053;-76
2021/12/18 08:48:23;;;;;;;7.28;3.10;;;7.80;99.90;;;;;;4992439;28;20061;-77
2021/12/18 08:50:49;;;;;;;10.57;3.45;;;9.00;99.90;;;;;;5009945;28;20069;-78
2021/12/18 08:53:15;;;;;;;12.30;2.85;;;7.90;99.90;;;;;;4992567;28;20148;-77
2021/12/18 08:55:41;;;;;;;9.00;2.90;;;7.90;99.90;;;;;;4998170;28;20083;-76
2021/12/18 08:58:06;;;;;;;8.18;2.65;;;7.90;99.90;;;;;;5000446;28;20033;-78
2021/12/18 09:00:33;;;;;;;7.00;3.10;;;7.90;99.90;;;;;;5035146;28;20057;-79
2021/12/18 09:03:00;;;;;;;10.25;2.90;;;8.00;99.90;;;;;;5019024;28;20072;-75
2021/12/18 09:05:27;;;;;;;15.00;2.70;;;8.00;99.90;;;;;;5020214;28;20060;-74
2021/12/18 09:07:53;;;;;;;11.20;2.78;;;9.10;99.90;;;;;;5009278;28;20048;-76
2021/12/18 09:10:20;;;;;;;8.10;3.67;;;8.00;99.90;;;;;;5010795;28;20048;-77
2021/12/18 09:12:45;;;;;;;11.05;2.55;;;8.10;99.90;;;;;;5009395;28;20046;-76
2021/12/18 09:15:12;;;;;;;13.38;5.70;;;8.10;99.90;;;;;;5011334;28;20397;-77
2021/12/18 09:17:38;;;;;;;20.55;7.90;;;8.00;99.90;;;;;;5000690;28;20050;-76
2021/12/18 09:20:05;;;;;;;16.02;8.05;;;8.10;99.90;;;;;;5009900;28;20481;-76
2021/12/18 09:22:31;;;;;;;9.70;4.30;;;8.10;99.90;;;;;;5019439;28;20120;-76
2021/12/18 09:24:57;;;;;;;10.93;2.90;;;8.10;99.90;;;;;;5023231;28;20045;-76
2021/12/18 09:27:22;;;;;;;11.88;3.05;;;8.20;99.90;;;;;;5021993;28;20088;-76
2021/12/18 09:29:48;;;;;;;11.55;2.60;;;8.20;99.90;;;;;;5004237;28;20077;-76
2021/12/18 09:32:14;;;;;;;7.40;2.58;;;8.10;99.90;;;;;;5055744;28;20052;-76
2021/12/18 09:34:39;;;;;;;8.57;2.85;;;8.20;99.90;;;;;;5038239;28;20042;-77
2021/12/18 09:37:05;;;;;;;8.60;2.45;;;8.20;99.90;;;;;;5023078;28;20473;-76
2021/12/18 09:39:31;;;;;;;12.63;3.05;;;8.20;99.90;;;;;;5020829;28;20045;-77
2021/12/18 09:41:57;;;;;;;8.55;2.80;;;8.20;99.90;;;;;;5004176;28;20148;-77
2021/12/18 09:44:25;;;;;;;8.52;2.63;;;8.20;99.90;;;;;;5018209;28;20083;-77
2021/12/18 09:46:51;;;;;;;8.75;2.83;;;8.20;99.90;;;;;;5021722;28;20049;-77
2021/12/18 09:49:17;;;;;;;6.00;2.75;;;8.20;99.90;;;;;;5038038;28;20038;-76
2021/12/18 09:51:43;;;;;;;10.68;3.60;;;8.20;99.90;;;;;;5036036;28;20120;-76
2021/12/18 09:54:09;;;;;;;10.63;3.97;;;8.20;99.90;;;;;;5038676;28;20038;-75
2021/12/18 09:56:34;;;;;;;9.65;4.05;;;8.20;99.90;;;;;;5034665;28;20129;-77
2021/12/18 09:59:00;;;;;;;3.72;3.22;;;8.20;99.90;;;;;;5039563;28;20037;-76
2021/12/18 10:01:26;;;;;;;12.23;4.13;;;8.20;99.90;;;;;;5007555;28;20092;-77
2021/12/18 10:03:58;;;;;;;7.90;3.13;;;8.20;99.90;;;;;;4994081;28;20061;-77
2021/12/18 10:06:37;;;;;;;7.35;3.00;;;8.20;99.90;;;;;;5005604;28;20064;-78
2021/12/18 10:09:18;;;;;;;6.32;2.80;;;8.20;99.90;;;;;;5006287;28;20046;-78
2021/12/18 10:11:49;;;;;;;5.40;2.05;;;9.30;99.90;;;;;;5012295;28;20128;-78
2021/12/18 10:14:17;;;;;;;11.95;2.92;;;8.20;99.90;;;;;;5014311;28;20041;-77
2021/12/18 10:16:48;;;;;;;16.17;10.43;;;8.20;99.90;;;;;;5046083;28;20084;-77
2021/12/18 10:19:27;;;;;;;43.97;31.55;;;8.20;99.90;;;;;;5012055;28;20038;-77
2021/12/18 10:21:56;;;;;;;22.83;13.32;;;8.20;99.90;;;;;;5004419;28;20033;-76
2021/12/18 10:24:21;;;;;;;9.68;3.45;;;8.20;99.90;;;;;;5011240;28;20046;-78
2021/12/18 10:26:47;;;;;;;7.97;3.35;;;8.20;99.90;;;;;;4994808;28;20045;-77
2021/12/18 10:29:36;;;;;;;10.32;3.35;;;8.20;99.90;;;;;;5011743;28;20042;-77
2021/12/18 10:32:10;;;;;;;13.63;4.47;;;8.20;99.90;;;;;;5014268;28;20046;-77
2021/12/18 10:34:38;;;;;;;10.40;4.50;;;8.20;99.90;;;;;;4316945;28;10000817;-76
2021/12/18 10:37:20;;;;;;;11.50;4.00;;;8.20;99.90;;;;;;5042569;28;20104;-76
2021/12/18 10:39:55;;;;;;;6.00;4.05;;;8.20;99.90;;;;;;4993931;28;20428;-76
2021/12/18 10:42:26;;;;;;;41.10;21.73;;;8.20;99.90;;;;;;5008662;28;20038;-76
2021/12/18 10:45:17;;;;;;;12.02;5.68;;;8.20;99.90;;;;;;4983567;28;20030;-76
2021/12/18 10:48:02;;;;;;;17.25;10.00;;;8.20;99.90;;;;;;5009707;28;20555;-76
2021/12/18 10:50:29;;;;;;;11.98;6.50;;;8.20;99.90;;;;;;4993438;28;20116;-78
2021/12/18 10:53:03;;;;;;;7.53;5.38;;;7.90;99.90;;;;;;5009523;28;20049;-77
2021/12/18 10:55:42;;;;;;;9.05;4.82;;;8.20;99.90;;;;;;4991953;28;20045;-78
2021/12/18 10:58:12;;;;;;;9.48;4.40;;;8.20;99.90;;;;;;4995202;28;20046;-76
2021/12/18 11:00:53;;;;;;;14.27;4.82;;;8.30;99.90;;;;;;5019848;28;20050;-77
2021/12/18 11:03:28;;;;;;;10.00;4.18;;;8.20;99.90;;;;;;4993061;28;20053;-77
2021/12/18 11:06:06;;;;;;;7.22;4.25;;;8.20;99.90;;;;;;4997590;28;20054;-75
2021/12/18 11:08:51;;;;;;;11.82;4.57;;;9.10;99.90;;;;;;5038110;28;20048;-75
2021/12/18 11:14:09;;;;;;;14.85;3.53;;;8.30;99.90;;;;;;5025693;28;20049;-79
2021/12/18 11:16:37;;;;;;;12.02;4.03;;;8.30;99.90;;;;;;5023345;28;20646;-78
2021/12/18 11:19:05;;;;;;;10.02;3.47;;;8.30;99.90;;;;;;5024927;28;20129;-77
2021/12/18 11:21:30;;;;;;;8.70;3.10;;;8.30;99.90;;;;;;5025976;28;20041;-78
2021/12/18 11:24:04;;;;;;;8.43;3.22;;;8.30;99.90;;;;;;5021220;28;20044;-80
2021/12/18 11:26:41;;;;;;;4.38;2.40;;;8.40;99.90;;;;;;5052704;28;20517;-81
2021/12/18 11:29:11;;;;;;;8.82;2.72;;;8.30;99.90;;;;;;5042443;28;20546;-78
2021/12/18 11:31:38;;;;;;;9.35;3.22;;;7.40;99.90;;;;;;5025275;28;20045;-79
2021/12/18 11:34:05;;;;;;;7.05;3.10;;;8.20;99.90;;;;;;4996236;28;20038;-78
2021/12/18 11:36:32;;;;;;;5.80;3.17;;;8.40;99.90;;;;;;5032032;28;20049;-77
2021/12/18 11:38:58;;;;;;;34.40;23.15;;;8.40;99.90;;;;;;5026157;28;20041;-77
2021/12/18 11:41:24;;;;;;;11.70;5.45;;;8.40;99.90;;;;;;5008566;28;20034;-77
2021/12/18 11:43:50;;;;;;;14.82;6.45;;;8.40;99.90;;;;;;5010376;28;20050;-82
2021/12/18 11:46:34;;;;;;;16.88;3.67;;;8.50;99.90;;;;;;5009727;28;20133;-77
2021/12/18 11:49:06;;;;;;;14.03;3.60;;;8.40;99.90;;;;;;5002554;28;20042;-77
2021/12/18 11:51:32;;;;;;;14.18;3.20;;;8.50;99.90;;;;;;5008497;28;20056;-77
2021/12/18 11:53:58;;;;;;;10.38;2.95;;;8.40;99.90;;;;;;5009335;28;20150;-77
2021/12/18 11:56:25;;;;;;;12.23;3.65;;;8.50;99.90;;;;;;5010314;28;20420;-76
2021/12/18 11:58:51;;;;;;;13.48;3.47;;;8.50;99.90;;;;;;5006487;28;20446;-83
2021/12/18 12:01:25;;;;;;;10.20;3.42;;;8.50;99.90;;;;;;5007926;28;20049;-78
2021/12/18 12:03:51;;;;;;;13.65;3.78;;;8.50;99.90;;;;;;5023390;28;20034;-83
2021/12/18 12:06:34;;;;;;;11.23;3.45;;;8.50;99.90;;;;;;4995673;28;20053;-74
2021/12/18 12:11:59;;;;;;;11.32;2.47;;;8.50;99.90;;;;;;5009952;28;20116;-82
2021/12/18 12:14:30;;;;;;;11.25;2.47;;;8.50;99.90;;;;;;5008877;28;20042;-78
2021/12/18 12:17:12;;;;;;;8.45;2.10;;;8.50;99.90;;;;;;5010196;28;20493;-77
2021/12/18 12:19:41;;;;;;;8.90;2.67;;;8.50;99.90;;;;;;5001983;28;20049;-82
2021/12/18 12:22:29;;;;;;;11.60;3.90;;;8.50;99.90;;;;;;4993050;28;20044;-77
2021/12/18 12:24:58;;;;;;;8.40;2.08;;;8.60;99.90;;;;;;5010058;28;20437;-81
2021/12/18 12:27:33;;;;;;;9.38;2.53;;;8.50;99.90;;;;;;5009167;28;20038;-77
2021/12/18 12:30:00;;;;;;;9.98;2.60;;;8.50;99.90;;;;;;5009717;28;20053;-82
2021/12/18 12:32:27;;;;;;;14.82;2.05;;;8.60;99.90;;;;;;5011682;28;20046;-80
2021/12/18 12:35:10;;;;;;;9.13;2.90;;;8.50;99.90;;;;;;5009854;28;20405;-82
2021/12/18 12:37:40;;;;;;;9.98;2.22;;;8.50;99.90;;;;;;5015518;28;20115;-82
2021/12/18 12:40:13;;;;;;;6.65;2.20;;;8.60;99.90;;;;;;5018765;28;20089;-79
2021/12/18 12:42:42;;;;;;;8.95;2.67;;;8.50;99.90;;;;;;5011607;28;20076;-79
2021/12/18 12:45:13;;;;;;;7.57;2.10;;;8.50;99.90;;;;;;5005057;28;20478;-77
2021/12/18 12:47:40;;;;;;;8.90;2.90;;;8.50;99.90;;;;;;5021035;28;20049;-77
2021/12/18 12:50:12;;;;;;;9.70;2.13;;;8.50;99.90;;;;;;5038422;28;20125;-79
2021/12/18 12:52:56;;;;;;;16.95;3.30;;;8.50;99.90;;;;;;5042016;28;20474;-79
2021/12/18 12:55:24;;;;;;;62.03;37.20;;;8.50;99.90;;;;;;5036015;28;20034;-80
2021/12/18 12:57:51;;;;;;;13.98;5.72;;;8.50;99.90;;;;;;5005559;28;20041;-80
2021/12/18 13:00:23;;;;;;;18.10;3.00;;;8.50;99.90;;;;;;5024778;28;20042;-81
2021/12/18 13:02:53;;;;;;;8.90;1.95;;;8.50;99.90;;;;;;5024172;28;20048;-81
2021/12/18 13:05:19;;;;;;;10.43;3.10;;;8.50;99.90;;;;;;4994127;28;20058;-77
2021/12/18 13:07:46;;;;;;;10.15;3.10;;;9.30;99.90;;;;;;5042304;28;20045;-77
2021/12/18 13:10:19;;;;;;;9.63;2.60;;;8.50;99.90;;;;;;5007545;28;20046;-77
2021/12/18 13:13:05;;;;;;;14.10;1.95;;;8.40;99.90;;;;;;5025400;28;20493;-79
2021/12/18 13:16:14;;;;;;;8.57;2.00;;;8.50;99.90;;;;;;5019880;28;20117;-79
2021/12/18 13:18:52;;;;;;;8.98;2.17;;;8.40;99.90;;;;;;4659908;28;10000613;-79
2021/12/18 13:21:25;;;;;;;6.25;1.83;;;8.40;99.90;;;;;;5033350;28;20033;-76
2021/12/18 13:23:54;;;;;;;10.43;2.20;;;8.40;99.90;;;;;;5006247;28;20048;-79
2021/12/18 13:26:21;;;;;;;11.18;2.13;;;8.40;99.90;;;;;;4992535;28;20145;-77
2021/12/18 13:29:11;;;;;;;7.90;2.75;;;8.50;99.90;;;;;;5022210;28;20053;-79
2021/12/18 13:31:44;;;;;;;13.57;6.43;;;8.50;99.90;;;;;;5017088;28;20103;-83
2021/12/18 13:34:14;;;;;;;10.52;3.92;;;8.40;99.90;;;;;;5021180;28;20049;-83
2021/12/18 13:36:45;;;;;;;12.52;2.45;;;8.40;99.90;;;;;;5022303;28;20096;-81
2021/12/18 13:39:17;;;;;;;8.18;1.98;;;8.40;99.90;;;;;;5020836;28;20046;-80
2021/12/18 13:42:02;;;;;;;8.98;2.63;;;8.40;99.90;;;;;;5017148;28;20398;-82
2021/12/18 13:45:02;;;;;;;5.50;1.70;;;8.40;99.90;;;;;;5010284;28;20049;-83
2021/12/18 13:47:41;;;;;;;5.30;1.73;;;8.40;99.90;;;;;;5002191;28;20060;-80
2021/12/18 13:50:17;;;;;;;12.27;2.05;;;8.40;99.90;;;;;;5010453;28;20049;-81